createdAt,value
2018-10-01T00:01:39.645Z,12.36
2018-10-01T00:04:43.963Z,12.22
2018-10-01T00:07:48.272Z,12.20
2018-10-01T00:10:52.648Z,12.22
2018-10-01T00:13:56.972Z,12.24
2018-10-01T00:17:01.302Z,12.26
2018-10-01T00:20:10.858Z,12.29
2018-10-01T00:23:15.215Z,12.34
2018-10-01T00:26:19.536Z,12.42
2018-10-01T00:29:23.929Z,12.46
2018-10-01T00:32:28.239Z,12.53
2018-10-01T00:35:32.595Z,12.50
2018-10-01T00:38:37.108Z,12.56
2018-10-01T00:41:41.769Z,12.59
2018-10-01T00:44:46.136Z,12.56
2018-10-01T00:47:50.525Z,12.56
2018-10-01T00:50:54.891Z,12.61
2018-10-01T00:53:59.228Z,12.67
2018-10-01T00:57:03.556Z,12.68
2018-10-01T01:00:07.970Z,13.01
2018-10-01T01:03:12.296Z,13.00
2018-10-01T01:06:16.661Z,13.06
2018-10-01T01:09:21.107Z,12.96
2018-10-01T01:12:25.466Z,13.01
2018-10-01T01:15:29.808Z,12.97
2018-10-01T01:18:34.166Z,13.03
2018-10-01T01:21:39.602Z,12.99
2018-10-01T01:24:43.948Z,12.97
2018-10-01T01:27:48.430Z,13.03
2018-10-01T01:30:52.750Z,13.05
2018-10-01T01:33:57.154Z,13.05
2018-10-01T01:37:01.516Z,13.02
2018-10-01T01:40:06.542Z,13.08
2018-10-01T01:43:10.869Z,13.05
2018-10-01T01:46:15.221Z,13.06
2018-10-01T01:49:19.600Z,13.03
2018-10-01T01:52:23.940Z,13.17
2018-10-01T01:55:28.280Z,13.06
2018-10-01T01:58:32.776Z,13.03
2018-10-01T02:01:37.079Z,12.98
2018-10-01T02:04:41.396Z,12.93
2018-10-01T02:07:45.716Z,13.00
2018-10-01T02:10:50.060Z,13.04
2018-10-01T02:13:54.372Z,12.98
2018-10-01T02:16:58.678Z,12.97
2018-10-01T02:20:02.980Z,12.90
2018-10-01T02:23:07.511Z,12.94
2018-10-01T02:26:11.809Z,13.05
2018-10-01T02:29:16.160Z,12.97
2018-10-01T02:32:20.522Z,12.93
2018-10-01T02:35:24.818Z,12.89
2018-10-01T02:38:29.125Z,12.95
2018-10-01T02:41:33.421Z,12.91
2018-10-01T02:44:37.765Z,12.79
2018-10-01T02:47:42.085Z,12.73
2018-10-01T02:50:46.401Z,12.64
2018-10-01T02:53:56.048Z,12.58
2018-10-01T02:57:01.237Z,12.50
2018-10-01T03:00:06.907Z,12.48
2018-10-01T03:03:11.231Z,12.43
2018-10-01T03:06:15.525Z,12.39
2018-10-01T03:09:19.858Z,12.31
2018-10-01T03:12:24.225Z,12.24
2018-10-01T03:15:28.465Z,12.18
2018-10-01T03:18:32.859Z,12.14
2018-10-01T03:21:38.348Z,12.13
2018-10-01T03:24:42.683Z,12.09
2018-10-01T03:27:47.013Z,12.08
2018-10-01T03:30:51.431Z,12.03
2018-10-01T03:33:55.909Z,12.03
2018-10-01T03:37:00.240Z,12.03
2018-10-01T03:40:04.817Z,12.04
2018-10-01T03:43:10.866Z,12.09
2018-10-01T03:46:15.215Z,12.05
2018-10-01T03:49:19.540Z,12.11
2018-10-01T03:52:23.849Z,12.06
2018-10-01T03:55:28.149Z,12.17
2018-10-01T03:58:32.478Z,12.19
2018-10-01T04:01:36.814Z,12.25
2018-10-01T04:04:41.167Z,12.25
2018-10-01T04:07:45.474Z,12.23
2018-10-01T04:10:49.786Z,12.23
2018-10-01T04:13:54.090Z,12.19
2018-10-01T04:16:58.444Z,12.21
2018-10-01T04:20:03.177Z,12.25
2018-10-01T04:23:07.713Z,12.28
2018-10-01T04:26:12.311Z,12.25
2018-10-01T04:29:16.712Z,12.19
2018-10-01T04:32:21.032Z,12.15
2018-10-01T04:35:25.441Z,12.16
2018-10-01T04:38:29.813Z,12.17
2018-10-01T04:41:34.139Z,12.16
2018-10-01T04:44:38.440Z,12.14
2018-10-01T04:47:42.785Z,12.16
2018-10-01T04:50:47.130Z,12.24
2018-10-01T04:53:51.522Z,12.24
2018-10-01T04:56:55.861Z,12.25
2018-10-01T05:00:00.160Z,12.20
2018-10-01T05:03:04.530Z,12.20
2018-10-01T05:06:09.249Z,12.01
2018-10-01T05:09:13.558Z,12.03
2018-10-01T05:12:17.867Z,12.01
2018-10-01T05:15:22.172Z,12.15
2018-10-01T05:18:26.526Z,12.15
2018-10-01T05:21:30.840Z,12.06
2018-10-01T05:24:35.145Z,11.99
2018-10-01T05:27:39.488Z,12.00
2018-10-01T05:30:43.825Z,11.98
2018-10-01T05:33:48.138Z,12.01
2018-10-01T05:36:52.455Z,12.01
2018-10-01T05:39:56.825Z,12.11
2018-10-01T05:43:01.154Z,12.25
2018-10-01T05:46:05.518Z,12.38
2018-10-01T05:49:09.853Z,12.23
2018-10-01T05:52:14.213Z,12.30
2018-10-01T05:55:18.541Z,12.22
2018-10-01T05:58:22.907Z,12.31
2018-10-01T06:01:27.243Z,12.19
2018-10-01T06:04:31.576Z,12.21
2018-10-01T06:07:35.912Z,12.19
2018-10-01T06:10:40.255Z,12.32
2018-10-01T06:13:44.668Z,12.25
2018-10-01T06:16:48.971Z,12.01
2018-10-01T06:19:53.259Z,11.85
2018-10-01T06:22:57.586Z,11.71
2018-10-01T06:26:01.881Z,11.73
2018-10-01T06:29:06.210Z,11.69
2018-10-01T06:32:10.586Z,11.71
2018-10-01T06:35:14.871Z,11.63
2018-10-01T06:38:19.252Z,11.57
2018-10-01T06:41:23.782Z,11.59
2018-10-01T06:44:28.102Z,11.53
2018-10-01T06:47:32.398Z,11.44
2018-10-01T06:50:36.707Z,11.55
2018-10-01T06:53:41.063Z,11.56
2018-10-01T06:56:45.405Z,11.36
2018-10-01T06:59:49.736Z,11.10
2018-10-01T07:02:54.048Z,10.97
2018-10-01T07:05:58.825Z,10.90
2018-10-01T07:09:03.085Z,10.93
2018-10-01T07:12:07.441Z,10.84
2018-10-01T07:15:11.763Z,10.86
2018-10-01T07:18:16.176Z,10.88
2018-10-01T07:21:20.488Z,10.90
2018-10-01T07:24:24.938Z,10.92
2018-10-01T07:27:29.303Z,10.94
2018-10-01T07:30:33.629Z,10.99
2018-10-01T07:33:38.114Z,11.00
2018-10-01T07:36:42.583Z,11.00
2018-10-01T07:39:47.114Z,11.07
2018-10-01T07:42:51.493Z,11.13
2018-10-01T07:45:55.813Z,11.15
2018-10-01T07:49:00.152Z,11.07
2018-10-01T07:52:04.551Z,10.95
2018-10-01T07:55:09.086Z,10.68
2018-10-01T07:58:13.491Z,10.47
2018-10-01T08:01:17.896Z,10.30
2018-10-01T08:04:22.273Z,10.07
2018-10-01T08:07:26.600Z,9.85
2018-10-01T08:10:31.195Z,9.84
2018-10-01T08:13:35.744Z,9.90
2018-10-01T08:16:40.387Z,9.93
2018-10-01T08:19:44.807Z,9.96
2018-10-01T08:22:49.370Z,9.98
2018-10-01T08:25:53.679Z,10.03
2018-10-01T08:28:58.380Z,10.01
2018-10-01T08:32:02.903Z,9.99
2018-10-01T08:35:07.363Z,9.99
2018-10-01T08:38:11.930Z,9.98
2018-10-01T08:41:16.230Z,10.04
2018-10-01T08:44:20.713Z,10.16
2018-10-01T08:47:25.229Z,10.21
2018-10-01T08:50:39.489Z,10.29
2018-10-01T08:54:47.886Z,10.41
2018-10-01T08:57:52.401Z,10.84
2018-10-01T09:00:56.969Z,10.89
2018-10-01T09:04:01.288Z,10.97
2018-10-01T09:07:06.307Z,10.84
2018-10-01T09:10:10.928Z,11.01
2018-10-01T09:13:15.374Z,11.10
2018-10-01T09:16:19.878Z,11.03
2018-10-01T09:19:24.337Z,11.19
2018-10-01T09:22:28.659Z,11.28
2018-10-01T09:25:34.419Z,11.20
2018-10-01T09:28:39.001Z,11.29
2018-10-01T09:31:43.827Z,11.27
2018-10-01T09:34:52.519Z,11.19
2018-10-01T09:37:57.055Z,11.23
2018-10-01T09:41:01.878Z,11.39
2018-10-01T09:44:06.385Z,11.41
2018-10-01T09:47:10.985Z,11.42
2018-10-01T09:50:15.433Z,11.45
2018-10-01T09:53:19.932Z,11.69
2018-10-01T09:56:24.683Z,11.65
2018-10-01T09:59:29.249Z,11.62
2018-10-01T10:02:33.844Z,11.58
2018-10-01T10:05:39.330Z,11.80
2018-10-01T10:08:43.953Z,11.97
2018-10-01T10:11:48.384Z,12.07
2018-10-01T10:14:53.072Z,12.14
2018-10-01T10:17:57.610Z,12.03
2018-10-01T10:21:02.148Z,11.70
2018-10-01T10:24:07.425Z,11.37
2018-10-01T10:27:11.919Z,10.96
2018-10-01T10:30:16.298Z,10.31
2018-10-01T10:33:21.003Z,9.84
2018-10-01T10:36:25.399Z,9.32
2018-10-01T10:39:29.861Z,9.04
2018-10-01T10:42:34.265Z,9.14
2018-10-01T10:45:39.438Z,9.23
2018-10-01T10:48:44.007Z,9.32
2018-10-01T10:51:48.479Z,9.53
2018-10-01T10:54:53.301Z,9.75
2018-10-01T10:57:58.093Z,9.90
2018-10-01T11:01:02.540Z,10.02
2018-10-01T11:04:06.972Z,10.19
2018-10-01T11:07:11.505Z,10.40
2018-10-01T11:10:15.756Z,10.64
2018-10-01T11:13:20.241Z,10.73
2018-10-01T11:16:24.920Z,10.85
2018-10-01T11:19:29.335Z,10.86
2018-10-01T11:22:33.679Z,10.88
2018-10-01T11:25:38.726Z,10.96
2018-10-01T11:28:43.154Z,11.10
2018-10-01T11:31:47.792Z,11.18
2018-10-01T11:34:52.699Z,11.45
2018-10-01T11:37:56.942Z,11.73
2018-10-01T11:41:01.357Z,11.91
2018-10-01T11:44:05.998Z,11.88
2018-10-01T11:47:10.419Z,12.11
2018-10-01T11:50:14.848Z,12.36
2018-10-01T11:53:19.434Z,12.60
2018-10-01T11:56:24.050Z,12.98
2018-10-01T11:59:28.377Z,13.13
2018-10-01T12:02:33.097Z,12.83
2018-10-01T12:05:38.255Z,13.01
2018-10-01T12:08:42.807Z,13.21
2018-10-01T12:11:47.172Z,13.70
2018-10-01T12:14:51.593Z,13.83
2018-10-01T12:17:56.360Z,14.31
2018-10-01T12:21:00.962Z,14.32
2018-10-01T12:24:05.807Z,14.21
2018-10-01T12:27:10.983Z,14.06
2018-10-01T12:30:43.440Z,14.14
2018-10-01T12:33:50.513Z,13.14
2018-10-01T12:36:54.850Z,13.18
2018-10-01T12:39:59.149Z,13.06
2018-10-01T12:43:03.499Z,12.56
2018-10-01T12:46:07.895Z,12.49
2018-10-01T12:49:12.250Z,12.39
2018-10-01T12:52:16.961Z,12.39
2018-10-01T12:55:21.259Z,12.81
2018-10-01T12:58:25.657Z,12.86
2018-10-01T13:01:30.250Z,12.90
2018-10-01T13:04:34.779Z,13.04
2018-10-01T13:07:39.222Z,13.08
2018-10-01T13:10:43.648Z,13.37
2018-10-01T13:13:48.028Z,13.43
2018-10-01T13:16:53.454Z,13.65
2018-10-01T13:19:57.940Z,13.67
2018-10-01T13:23:02.336Z,13.32
2018-10-01T13:26:07.228Z,13.36
2018-10-01T13:29:11.612Z,13.08
2018-10-01T13:32:18.979Z,13.04
2018-10-01T13:35:23.708Z,12.73
2018-10-01T13:38:33.804Z,12.45
2018-10-01T13:41:48.542Z,12.03
2018-10-01T13:44:55.317Z,11.78
2018-10-01T13:48:06.425Z,11.58
2018-10-01T13:51:16.902Z,11.45
2018-10-01T13:54:32.131Z,11.35
2018-10-01T13:57:45.104Z,11.31
2018-10-01T14:00:50.957Z,11.47
2018-10-01T14:03:59.026Z,11.83
2018-10-01T14:07:11.991Z,12.23
2018-10-01T14:10:50.103Z,12.39
2018-10-01T14:14:00.941Z,12.51
2018-10-01T14:17:12.827Z,12.26
2018-10-01T14:20:24.877Z,12.16
2018-10-01T14:23:36.804Z,12.06
2018-10-01T14:30:04.329Z,11.49
2018-10-01T14:33:09.030Z,11.50
2018-10-01T14:36:13.408Z,11.36
2018-10-01T14:39:17.810Z,11.30
2018-10-01T14:42:22.231Z,11.03
2018-10-01T14:45:26.589Z,10.86
2018-10-01T14:48:31.025Z,10.82
2018-10-01T14:51:35.304Z,10.77
2018-10-01T14:54:39.658Z,10.77
2018-10-01T14:57:44.082Z,10.78
2018-10-01T15:00:48.557Z,10.75
2018-10-01T15:03:53.096Z,10.76
2018-10-01T15:06:57.410Z,10.80
2018-10-01T15:10:01.825Z,10.78
2018-10-01T15:13:06.385Z,10.65
2018-10-01T15:16:10.818Z,10.59
2018-10-01T15:19:15.187Z,10.54
2018-10-01T15:22:19.536Z,10.39
2018-10-01T15:25:23.972Z,10.39
2018-10-01T15:28:28.383Z,10.43
2018-10-01T15:31:32.926Z,10.45
2018-10-01T15:34:37.377Z,10.46
2018-10-01T15:37:41.946Z,10.46
2018-10-01T15:40:46.312Z,10.42
2018-10-01T15:43:50.708Z,10.37
2018-10-01T15:46:55.191Z,10.36
2018-10-01T15:49:59.589Z,10.33
2018-10-01T15:54:06.678Z,10.32
2018-10-01T15:57:11.051Z,10.29
2018-10-01T16:00:15.468Z,10.36
2018-10-01T16:03:19.929Z,10.28
2018-10-01T16:06:24.234Z,10.27
2018-10-01T16:09:28.619Z,10.25
2018-10-01T16:12:32.946Z,10.23
2018-10-01T16:15:37.268Z,10.23
2018-10-01T16:18:41.651Z,10.10
2018-10-01T16:24:55.659Z,10.05
2018-10-01T16:28:00.017Z,10.07
2018-10-01T16:31:04.472Z,10.05
2018-10-01T16:34:08.847Z,9.96
2018-10-01T16:37:13.406Z,9.87
2018-10-01T16:40:17.703Z,9.91
2018-10-01T16:46:32.141Z,9.79
2018-10-01T16:49:36.540Z,9.77
2018-10-01T16:52:40.991Z,9.73
2018-10-01T16:55:45.316Z,9.70
2018-10-01T16:58:49.672Z,9.64
2018-10-01T17:01:53.991Z,9.57
2018-10-01T17:04:58.566Z,9.63
2018-10-01T17:08:03.364Z,9.62
2018-10-01T17:11:07.998Z,9.55
2018-10-01T17:14:12.405Z,9.48
2018-10-01T17:17:16.828Z,9.46
2018-10-01T17:20:21.220Z,9.48
2018-10-01T17:23:25.563Z,9.47
2018-10-01T17:26:30.095Z,9.39
2018-10-01T17:29:34.420Z,9.43
2018-10-01T17:32:38.757Z,9.50
2018-10-01T17:35:43.189Z,9.46
2018-10-01T17:38:47.611Z,9.50
2018-10-01T17:41:51.995Z,9.42
2018-10-01T17:44:56.416Z,9.39
2018-10-01T17:48:00.783Z,9.33
2018-10-01T17:51:05.554Z,9.33
2018-10-01T17:54:10.010Z,9.29
2018-10-01T17:57:14.279Z,9.21
2018-10-01T18:00:18.675Z,9.22
2018-10-01T18:03:22.992Z,9.17
2018-10-01T18:06:27.425Z,9.16
2018-10-01T18:09:31.799Z,9.12
2018-10-01T18:12:36.232Z,9.15
2018-10-01T18:15:40.649Z,9.10
2018-10-01T18:18:45.220Z,9.07
2018-10-01T18:21:49.619Z,9.12
2018-10-01T18:24:54.094Z,9.01
2018-10-01T18:27:58.464Z,8.92
2018-10-01T18:31:02.872Z,8.80
2018-10-01T18:34:07.288Z,8.77
2018-10-01T18:37:11.676Z,8.64
2018-10-01T18:40:16.156Z,8.62
2018-10-01T18:43:20.443Z,8.56
2018-10-01T18:46:24.914Z,8.49
2018-10-01T18:49:29.331Z,8.47
2018-10-01T18:52:33.699Z,8.47
2018-10-01T18:55:38.128Z,8.51
2018-10-01T18:58:42.489Z,8.51
2018-10-01T19:01:46.913Z,8.43
2018-10-01T19:04:51.242Z,8.47
2018-10-01T19:07:55.528Z,8.36
2018-10-01T19:10:59.833Z,8.47
2018-10-01T19:14:04.159Z,8.44
2018-10-01T19:17:08.483Z,8.47
2018-10-01T19:20:12.777Z,8.51
2018-10-01T19:23:17.204Z,8.46
2018-10-01T19:26:21.574Z,8.40
2018-10-01T19:29:25.943Z,8.41
2018-10-01T19:32:30.351Z,8.36
2018-10-01T19:35:35.087Z,8.38
2018-10-01T19:38:39.607Z,8.38
2018-10-01T19:41:43.928Z,8.42
2018-10-01T19:44:48.801Z,8.33
2018-10-01T19:47:53.228Z,8.38
2018-10-01T19:50:57.651Z,8.45
2018-10-01T19:54:02.067Z,8.39
2018-10-01T19:57:06.582Z,8.50
2018-10-01T20:00:11.085Z,8.44
2018-10-01T20:03:15.598Z,8.45
2018-10-01T20:06:19.913Z,8.60
2018-10-01T20:09:24.336Z,8.58
2018-10-01T20:12:28.680Z,8.53
2018-10-01T20:15:33.150Z,8.59
2018-10-01T20:18:37.501Z,8.54
2018-10-01T20:21:41.848Z,8.52
2018-10-01T20:24:46.240Z,8.50
2018-10-01T20:27:50.582Z,8.47
2018-10-01T20:30:54.845Z,8.42
2018-10-01T20:33:59.159Z,8.29
2018-10-01T20:37:03.984Z,8.34
2018-10-01T20:40:09.502Z,8.32
2018-10-01T20:43:13.901Z,8.27
2018-10-01T20:46:18.307Z,8.28
2018-10-01T20:49:23.817Z,8.29
2018-10-01T20:52:28.360Z,8.22
2018-10-01T20:55:32.550Z,8.24
2018-10-01T20:58:37.060Z,8.19
2018-10-01T21:01:41.412Z,8.08
2018-10-01T21:04:45.710Z,7.97
2018-10-01T21:07:50.208Z,7.94
2018-10-01T21:10:54.574Z,7.87
2018-10-01T21:13:58.900Z,7.79
2018-10-01T21:17:03.218Z,7.65
2018-10-01T21:20:07.536Z,7.58
2018-10-01T21:23:11.833Z,7.58
2018-10-01T21:26:16.176Z,7.43
2018-10-01T21:29:20.517Z,7.28
2018-10-01T21:32:24.975Z,7.19
2018-10-01T21:35:29.420Z,7.18
2018-10-01T21:38:33.803Z,7.19
2018-10-01T21:41:38.112Z,7.12
2018-10-01T21:44:42.518Z,7.24
2018-10-01T21:47:46.823Z,7.36
2018-10-01T21:50:51.120Z,7.42
2018-10-01T21:53:55.453Z,7.54
2018-10-01T21:57:00.029Z,7.66
2018-10-01T22:00:05.602Z,7.68
2018-10-01T22:03:10.025Z,7.70
2018-10-01T22:06:14.308Z,7.80
2018-10-01T22:09:18.593Z,7.85
2018-10-01T22:12:22.911Z,7.95
2018-10-01T22:15:31.286Z,8.05
2018-10-01T22:18:35.593Z,8.10
2018-10-01T22:21:40.126Z,8.07
2018-10-01T22:24:44.406Z,7.97
2018-10-01T22:27:48.700Z,7.88
2018-10-01T22:30:53.022Z,7.92
2018-10-01T22:33:57.320Z,7.79
2018-10-01T22:37:01.696Z,7.75
2018-10-01T22:40:06.360Z,7.77
2018-10-01T22:43:10.663Z,7.69
2018-10-01T22:46:15.018Z,7.67
2018-10-01T22:49:19.375Z,7.73
2018-10-01T22:52:23.707Z,7.78
2018-10-01T22:55:28.032Z,7.77
2018-10-01T22:58:32.321Z,7.81
2018-10-01T23:01:36.616Z,7.83
2018-10-01T23:04:40.903Z,7.85
2018-10-01T23:07:45.225Z,7.86
2018-10-01T23:10:49.506Z,7.85
2018-10-01T23:13:53.836Z,7.77
2018-10-01T23:16:58.132Z,7.76
2018-10-01T23:20:02.416Z,7.69
2018-10-01T23:23:06.716Z,7.38
2018-10-01T23:26:10.999Z,7.34
2018-10-01T23:29:15.292Z,7.36
2018-10-01T23:32:19.625Z,7.40
2018-10-01T23:35:23.879Z,7.32
2018-10-01T23:38:28.220Z,7.28
2018-10-01T23:41:32.472Z,7.34
2018-10-01T23:44:36.762Z,7.28
2018-10-01T23:47:41.106Z,7.43
2018-10-01T23:50:45.374Z,7.33
2018-10-01T23:53:49.659Z,7.30
2018-10-01T23:56:54.009Z,7.26
2018-10-01T23:59:58.377Z,7.28
